Detalii statie AGROSAMI SACALAZ [00001988]

Toti senzorii

Date Temperatura solului [C]Precipitatii [mm]Voltaj baterie [mV]Leaf Wetness [Min]HC Air temperature [C]HC Relative humidity [%]Punctul de roua [C]
medieminmaxsumaultimatimpmedieminmaxmediemediemin
2018-02-23 13:00:00 0 7332 9.54 8.28 10.96 0 0 0
2018-02-23 14:00:00 0 7324 9.97 8.85 11.68 0 0 0
2018-02-23 15:00:00 0 7294 8.79 8.45 9.42 0 0 0
2018-02-23 16:00:00 0 7324 7.94 7.52 8.79 0 0 0
2018-02-23 17:00:00 0 7254 7.26 6.86 7.65 0 0 0
2018-02-23 18:00:00 0 7138 6.46 6.01 6.87 0 0 0
2018-02-23 19:00:00 0 7080 5.66 5.51 5.92 0 0 0
2018-02-23 20:00:00 0 7050 5.34 5.22 5.48 0 0 0
2018-02-23 21:00:00 0 7050 4.99 4.6 5.22 0 0 0
2018-02-23 22:00:00 0 7050 4.35 4.27 4.52 0 0 0
2018-02-23 23:00:00 0 7030 4.16 3.98 4.27 0 0 0
2018-02-24 00:00:00 0 7030 3.68 3.31 3.98 0 0 0
2018-02-24 01:00:00 0 7020 2.78 2.15 3.26 0 0 0
2018-02-24 02:00:00 0 7010 1.56 1.28 2.03 0 0 0
2018-02-24 03:00:00 0 7000 1.05 0.8 1.29 0 0 0
2018-02-24 04:00:00 0 6992 0.5 0.17 0.73 0 0 0
2018-02-24 05:00:00 0 6992 -0.19 -0.38 0.05 0 0 0
2018-02-24 06:00:00 0 6982 -0.59 -0.84 -0.4 0 0 0
2018-02-24 07:00:00 0 6972 -1 -1.19 -0.78 0 0 0
2018-02-24 08:00:00 0 6972 -1.36 -1.45 -1.23 0 0 0
2018-02-24 09:00:00 0 6982 -1.45 -1.56 -1.35 0 0 0
2018-02-24 10:00:00 0 7060 -1.45 -1.53 -1.41 0 0 0
2018-02-24 11:00:00 0 7246 -1.27 -1.54 -0.88 0 0 0
2018-02-24 12:00:00 0 7324 -0.78 -1.07 -0.46 0 0 0
2018-02-24 13:00:00 0 7324 -0.17 -0.39 0.25 0 0 0
2018-02-24 14:00:00 0 7342 1.2 0.3 2.57 0 0 0
2018-02-24 15:00:00 0 7342 1.76 1.3 2.41 0 0 0
2018-02-24 16:00:00 0 7324 1.69 1.22 2.16 0 0 0
2018-02-24 17:00:00 0 7274 1.07 0.69 1.48 0 0 0
2018-02-24 18:00:00 0 7216 0 -0.69 0.65 0 0 0
2018-02-24 19:00:00 0 7108 -1.46 -1.98 -0.81 0 0 0
2018-02-24 20:00:00 0 7050 -2.5 -3.3 -2.07 0 0 0
2018-02-24 21:00:00 0 7030 -2.64 -2.81 -2.25 0 0 0
2018-02-24 22:00:00 0 7020 -3.1 -3.38 -2.82 0 0 0
2018-02-24 23:00:00 0 7020 -3.64 -3.89 -3.39 0 0 0
2018-02-25 00:00:00 0 7000 -4.22 -4.54 -3.92 0 0 0
2018-02-25 01:00:00 0 6982 -3.99 -4.27 -3.78 0 0 0
2018-02-25 02:00:00 0 6982 -3.59 -3.69 -3.5 0 0 0
2018-02-25 03:00:00 0 6972 -3.95 -4.22 -3.73 0 0 0
2018-02-25 04:00:00 0 6982 -4.46 -4.69 -4.24 0 0 0
2018-02-25 05:00:00 0 6962 -5.15 -5.52 -4.75 0 0 0
2018-02-25 06:00:00 0 6972 -6.01 -6.49 -5.61 0 0 0
2018-02-25 07:00:00 0 6942 -6.99 -7.35 -6.62 0 0 0
2018-02-25 08:00:00 0 6952 -7.53 -7.7 -7.29 0 0 0
2018-02-25 09:00:00 0 7108 -7.1 -7.33 -6.84 0 0 0
2018-02-25 10:00:00 0 7314 -6.1 -6.8 -5.3 0 0 0
2018-02-25 11:00:00 0 7324 -4.25 -5.23 -3.22 0 0 0
2018-02-25 12:00:00 0 7324 -3.52 -3.75 -3.18 0 0 0